sensor_id;sensor_type;location;lat;lon;timestamp;P1;durP1;ratioP1;P2;durP2;ratioP2
51949;SDS011;37974;53.218;6.640;2023-12-20T00:00:13;687.85;;;636.22;;
51949;SDS011;37974;53.218;6.640;2023-12-20T00:02:39;660.15;;;610.80;;
51949;SDS011;37974;53.218;6.640;2023-12-20T00:05:05;673.22;;;623.15;;
51949;SDS011;37974;53.218;6.640;2023-12-20T00:07:31;692.50;;;640.17;;
51949;SDS011;37974;53.218;6.640;2023-12-20T00:09:57;671.60;;;620.97;;
51949;SDS011;37974;53.218;6.640;2023-12-20T00:12:22;640.38;;;593.25;;
51949;SDS011;37974;53.218;6.640;2023-12-20T00:14:48;683.25;;;632.55;;
51949;SDS011;37974;53.218;6.640;2023-12-20T00:17:14;650.38;;;602.03;;
51949;SDS011;37974;53.218;6.640;2023-12-20T00:19:40;701.97;;;649.20;;
51949;SDS011;37974;53.218;6.640;2023-12-20T00:22:05;698.45;;;645.55;;
51949;SDS011;37974;53.218;6.640;2023-12-20T00:24:31;687.63;;;636.63;;
51949;SDS011;37974;53.218;6.640;2023-12-20T00:26:57;686.60;;;635.42;;
51949;SDS011;37974;53.218;6.640;2023-12-20T00:29:22;697.47;;;644.30;;
51949;SDS011;37974;53.218;6.640;2023-12-20T00:31:48;678.20;;;627.60;;
51949;SDS011;37974;53.218;6.640;2023-12-20T00:34:14;675.05;;;624.92;;
51949;SDS011;37974;53.218;6.640;2023-12-20T00:36:39;656.08;;;607.30;;
51949;SDS011;37974;53.218;6.640;2023-12-20T00:39:05;725.72;;;669.92;;
51949;SDS011;37974;53.218;6.640;2023-12-20T00:41:32;755.95;;;696.92;;
51949;SDS011;37974;53.218;6.640;2023-12-20T00:43:57;719.47;;;664.83;;
51949;SDS011;37974;53.218;6.640;2023-12-20T00:46:23;767.63;;;707.38;;
51949;SDS011;37974;53.218;6.640;2023-12-20T00:48:49;792.53;;;730.45;;
51949;SDS011;37974;53.218;6.640;2023-12-20T00:51:14;835.75;;;768.25;;
51949;SDS011;37974;53.218;6.640;2023-12-20T00:53:40;756.47;;;698.03;;
51949;SDS011;37974;53.218;6.640;2023-12-20T00:56:06;730.47;;;674.90;;
51949;SDS011;37974;53.218;6.640;2023-12-20T00:58:31;725.25;;;670.25;;
51949;SDS011;37974;53.218;6.640;2023-12-20T01:00:57;752.17;;;694.67;;
51949;SDS011;37974;53.218;6.640;2023-12-20T01:03:23;726.60;;;671.28;;
51949;SDS011;37974;53.218;6.640;2023-12-20T01:05:49;706.42;;;652.83;;
51949;SDS011;37974;53.218;6.640;2023-12-20T01:08:14;669.00;;;619.15;;
51949;SDS011;37974;53.218;6.640;2023-12-20T01:10:40;667.25;;;617.60;;
51949;SDS011;37974;53.218;6.640;2023-12-20T01:13:06;763.83;;;704.85;;
51949;SDS011;37974;53.218;6.640;2023-12-20T01:15:32;679.97;;;629.38;;
51949;SDS011;37974;53.218;6.640;2023-12-20T01:17:57;708.40;;;654.50;;
51949;SDS011;37974;53.218;6.640;2023-12-20T01:20:24;679.05;;;628.28;;
51949;SDS011;37974;53.218;6.640;2023-12-20T01:22:50;710.95;;;657.35;;
51949;SDS011;37974;53.218;6.640;2023-12-20T01:25:16;706.72;;;653.13;;
51949;SDS011;37974;53.218;6.640;2023-12-20T01:27:41;729.88;;;673.30;;
51949;SDS011;37974;53.218;6.640;2023-12-20T01:30:07;708.47;;;655.30;;
51949;SDS011;37974;53.218;6.640;2023-12-20T01:32:34;749.95;;;692.00;;
51949;SDS011;37974;53.218;6.640;2023-12-20T01:34:59;743.05;;;685.25;;
51949;SDS011;37974;53.218;6.640;2023-12-20T01:37:25;895.88;;;816.80;;
51949;SDS011;37974;53.218;6.640;2023-12-20T01:39:51;828.42;;;762.30;;
51949;SDS011;37974;53.218;6.640;2023-12-20T01:42:18;830.70;;;763.58;;
51949;SDS011;37974;53.218;6.640;2023-12-20T01:44:43;902.63;;;822.63;;
51949;SDS011;37974;53.218;6.640;2023-12-20T01:47:09;796.47;;;734.05;;
51949;SDS011;37974;53.218;6.640;2023-12-20T01:49:35;912.47;;;830.75;;
51949;SDS011;37974;53.218;6.640;2023-12-20T01:52:01;770.28;;;708.03;;
51949;SDS011;37974;53.218;6.640;2023-12-20T01:54:26;806.35;;;739.95;;
51949;SDS011;37974;53.218;6.640;2023-12-20T01:56:52;779.08;;;716.22;;
51949;SDS011;37974;53.218;6.640;2023-12-20T01:59:18;721.15;;;663.42;;
51949;SDS011;37974;53.218;6.640;2023-12-20T02:01:46;682.67;;;631.70;;
51949;SDS011;37974;53.218;6.640;2023-12-20T02:04:12;698.63;;;644.90;;
51949;SDS011;37974;53.218;6.640;2023-12-20T02:06:38;647.75;;;599.55;;
51949;SDS011;37974;53.218;6.640;2023-12-20T02:09:05;759.88;;;700.20;;
51949;SDS011;37974;53.218;6.640;2023-12-20T02:11:32;739.83;;;682.05;;
51949;SDS011;37974;53.218;6.640;2023-12-20T02:14:00;697.78;;;644.75;;
51949;SDS011;37974;53.218;6.640;2023-12-20T02:16:26;768.22;;;707.25;;
51949;SDS011;37974;53.218;6.640;2023-12-20T02:18:52;679.22;;;628.00;;
51949;SDS011;37974;53.218;6.640;2023-12-20T02:21:18;710.35;;;656.03;;
51949;SDS011;37974;53.218;6.640;2023-12-20T02:23:56;666.08;;;616.63;;
51949;SDS011;37974;53.218;6.640;2023-12-20T02:26:22;724.63;;;667.63;;
51949;SDS011;37974;53.218;6.640;2023-12-20T02:28:48;652.42;;;603.85;;
51949;SDS011;37974;53.218;6.640;2023-12-20T02:31:13;711.25;;;656.25;;
51949;SDS011;37974;53.218;6.640;2023-12-20T02:33:39;680.90;;;629.45;;
51949;SDS011;37974;53.218;6.640;2023-12-20T02:36:07;691.92;;;639.70;;
51949;SDS011;37974;53.218;6.640;2023-12-20T02:38:32;658.33;;;609.45;;
51949;SDS011;37974;53.218;6.640;2023-12-20T02:40:59;666.67;;;616.80;;
51949;SDS011;37974;53.218;6.640;2023-12-20T02:43:24;735.63;;;678.03;;
51949;SDS011;37974;53.218;6.640;2023-12-20T02:45:50;731.92;;;675.80;;
51949;SDS011;37974;53.218;6.640;2023-12-20T02:48:17;792.38;;;729.08;;
51949;SDS011;37974;53.218;6.640;2023-12-20T02:50:43;824.35;;;756.83;;
51949;SDS011;37974;53.218;6.640;2023-12-20T02:53:08;812.40;;;744.72;;
51949;SDS011;37974;53.218;6.640;2023-12-20T02:55:34;747.40;;;689.42;;
51949;SDS011;37974;53.218;6.640;2023-12-20T02:58:00;718.60;;;662.97;;
51949;SDS011;37974;53.218;6.640;2023-12-20T03:00:25;710.35;;;655.80;;
51949;SDS011;37974;53.218;6.640;2023-12-20T03:02:51;719.55;;;664.35;;
51949;SDS011;37974;53.218;6.640;2023-12-20T03:05:17;734.58;;;676.28;;
51949;SDS011;37974;53.218;6.640;2023-12-20T03:07:42;682.10;;;629.78;;
51949;SDS011;37974;53.218;6.640;2023-12-20T03:10:08;723.15;;;667.53;;
51949;SDS011;37974;53.218;6.640;2023-12-20T03:12:34;700.33;;;647.20;;
51949;SDS011;37974;53.218;6.640;2023-12-20T03:15:00;704.80;;;650.47;;
51949;SDS011;37974;53.218;6.640;2023-12-20T03:17:26;725.33;;;668.97;;
51949;SDS011;37974;53.218;6.640;2023-12-20T03:19:51;741.25;;;683.55;;
51949;SDS011;37974;53.218;6.640;2023-12-20T03:22:17;777.47;;;715.58;;
51949;SDS011;37974;53.218;6.640;2023-12-20T03:24:42;743.03;;;685.25;;
51949;SDS011;37974;53.218;6.640;2023-12-20T03:27:08;835.20;;;765.35;;
51949;SDS011;37974;53.218;6.640;2023-12-20T03:29:34;784.83;;;722.45;;
51949;SDS011;37974;53.218;6.640;2023-12-20T03:31:59;763.83;;;703.55;;
51949;SDS011;37974;53.218;6.640;2023-12-20T03:34:26;774.65;;;713.53;;
51949;SDS011;37974;53.218;6.640;2023-12-20T03:36:52;724.55;;;669.40;;
51949;SDS011;37974;53.218;6.640;2023-12-20T03:39:17;694.38;;;640.60;;
51949;SDS011;37974;53.218;6.640;2023-12-20T03:41:43;701.28;;;647.13;;
51949;SDS011;37974;53.218;6.640;2023-12-20T03:44:09;748.15;;;688.45;;
51949;SDS011;37974;53.218;6.640;2023-12-20T03:46:34;737.00;;;679.70;;
51949;SDS011;37974;53.218;6.640;2023-12-20T03:49:00;743.95;;;686.20;;
51949;SDS011;37974;53.218;6.640;2023-12-20T03:51:26;778.33;;;716.90;;
51949;SDS011;37974;53.218;6.640;2023-12-20T03:53:51;725.70;;;669.53;;
51949;SDS011;37974;53.218;6.640;2023-12-20T03:56:17;674.55;;;622.70;;
51949;SDS011;37974;53.218;6.640;2023-12-20T03:58:43;732.88;;;675.72;;
51949;SDS011;37974;53.218;6.640;2023-12-20T04:01:09;757.55;;;697.00;;
51949;SDS011;37974;53.218;6.640;2023-12-20T04:03:37;770.15;;;708.50;;
51949;SDS011;37974;53.218;6.640;2023-12-20T04:06:04;735.72;;;677.10;;
51949;SDS011;37974;53.218;6.640;2023-12-20T04:08:29;711.10;;;656.00;;
51949;SDS011;37974;53.218;6.640;2023-12-20T04:10:55;716.45;;;661.58;;
51949;SDS011;37974;53.218;6.640;2023-12-20T04:13:21;676.97;;;626.03;;
51949;SDS011;37974;53.218;6.640;2023-12-20T04:15:46;741.47;;;683.80;;
51949;SDS011;37974;53.218;6.640;2023-12-20T04:18:13;771.05;;;710.42;;
51949;SDS011;37974;53.218;6.640;2023-12-20T04:20:38;697.35;;;643.63;;
51949;SDS011;37974;53.218;6.640;2023-12-20T04:23:04;715.38;;;660.60;;
51949;SDS011;37974;53.218;6.640;2023-12-20T04:25:30;717.95;;;661.78;;
51949;SDS011;37974;53.218;6.640;2023-12-20T04:27:56;725.83;;;669.35;;
51949;SDS011;37974;53.218;6.640;2023-12-20T04:30:21;733.85;;;677.30;;
51949;SDS011;37974;53.218;6.640;2023-12-20T04:32:47;806.22;;;740.33;;
51949;SDS011;37974;53.218;6.640;2023-12-20T04:35:12;795.55;;;730.70;;
51949;SDS011;37974;53.218;6.640;2023-12-20T04:37:38;758.08;;;698.22;;
51949;SDS011;37974;53.218;6.640;2023-12-20T04:40:04;691.58;;;638.22;;
51949;SDS011;37974;53.218;6.640;2023-12-20T04:42:30;704.58;;;650.38;;
51949;SDS011;37974;53.218;6.640;2023-12-20T04:44:56;780.67;;;719.15;;
51949;SDS011;37974;53.218;6.640;2023-12-20T04:47:22;768.83;;;708.05;;
51949;SDS011;37974;53.218;6.640;2023-12-20T04:49:47;714.03;;;659.63;;
51949;SDS011;37974;53.218;6.640;2023-12-20T04:52:13;677.72;;;626.10;;
51949;SDS011;37974;53.218;6.640;2023-12-20T04:54:39;756.63;;;697.35;;
51949;SDS011;37974;53.218;6.640;2023-12-20T04:57:05;673.00;;;621.80;;
51949;SDS011;37974;53.218;6.640;2023-12-20T04:59:31;740.67;;;683.35;;
51949;SDS011;37974;53.218;6.640;2023-12-20T05:01:56;658.17;;;608.28;;
51949;SDS011;37974;53.218;6.640;2023-12-20T05:04:22;695.83;;;642.92;;
51949;SDS011;37974;53.218;6.640;2023-12-20T05:06:48;702.97;;;648.97;;
51949;SDS011;37974;53.218;6.640;2023-12-20T05:09:15;710.17;;;653.22;;
51949;SDS011;37974;53.218;6.640;2023-12-20T05:11:41;716.83;;;660.17;;
51949;SDS011;37974;53.218;6.640;2023-12-20T05:14:07;643.97;;;594.88;;
51949;SDS011;37974;53.218;6.640;2023-12-20T05:16:32;673.65;;;622.00;;
51949;SDS011;37974;53.218;6.640;2023-12-20T05:18:58;703.33;;;647.85;;
51949;SDS011;37974;53.218;6.640;2023-12-20T05:21:26;660.92;;;609.75;;
51949;SDS011;37974;53.218;6.640;2023-12-20T05:23:51;720.63;;;663.30;;
51949;SDS011;37974;53.218;6.640;2023-12-20T05:26:17;695.60;;;642.53;;
51949;SDS011;37974;53.218;6.640;2023-12-20T05:28:43;698.42;;;643.47;;
51949;SDS011;37974;53.218;6.640;2023-12-20T05:31:09;720.33;;;663.25;;
51949;SDS011;37974;53.218;6.640;2023-12-20T05:33:34;702.67;;;646.20;;
51949;SDS011;37974;53.218;6.640;2023-12-20T05:36:00;713.45;;;657.50;;
51949;SDS011;37974;53.218;6.640;2023-12-20T05:38:26;668.97;;;617.75;;
51949;SDS011;37974;53.218;6.640;2023-12-20T05:40:52;714.50;;;659.33;;
51949;SDS011;37974;53.218;6.640;2023-12-20T05:43:17;718.67;;;661.38;;
51949;SDS011;37974;53.218;6.640;2023-12-20T05:45:43;679.63;;;627.55;;
51949;SDS011;37974;53.218;6.640;2023-12-20T05:48:09;659.47;;;609.92;;
51949;SDS011;37974;53.218;6.640;2023-12-20T05:50:34;672.20;;;619.17;;
51949;SDS011;37974;53.218;6.640;2023-12-20T05:53:00;699.85;;;645.40;;
51949;SDS011;37974;53.218;6.640;2023-12-20T05:55:26;627.33;;;578.72;;
51949;SDS011;37974;53.218;6.640;2023-12-20T05:57:51;663.70;;;613.40;;
51949;SDS011;37974;53.218;6.640;2023-12-20T06:00:17;659.50;;;609.15;;
51949;SDS011;37974;53.218;6.640;2023-12-20T06:02:43;675.08;;;623.00;;
51949;SDS011;37974;53.218;6.640;2023-12-20T06:05:09;667.65;;;616.65;;
51949;SDS011;37974;53.218;6.640;2023-12-20T06:07:35;695.45;;;641.13;;
51949;SDS011;37974;53.218;6.640;2023-12-20T06:10:00;687.40;;;633.78;;
51949;SDS011;37974;53.218;6.640;2023-12-20T06:12:26;666.42;;;616.30;;
51949;SDS011;37974;53.218;6.640;2023-12-20T06:14:53;756.53;;;695.70;;
51949;SDS011;37974;53.218;6.640;2023-12-20T06:17:19;664.25;;;613.50;;
51949;SDS011;37974;53.218;6.640;2023-12-20T06:19:45;688.90;;;635.70;;
51949;SDS011;37974;53.218;6.640;2023-12-20T06:22:13;700.20;;;645.33;;
51949;SDS011;37974;53.218;6.640;2023-12-20T06:24:39;663.65;;;613.80;;
51949;SDS011;37974;53.218;6.640;2023-12-20T06:27:05;647.58;;;597.95;;
51949;SDS011;37974;53.218;6.640;2023-12-20T06:29:31;696.72;;;642.08;;
51949;SDS011;37974;53.218;6.640;2023-12-20T06:31:57;819.05;;;749.05;;
51949;SDS011;37974;53.218;6.640;2023-12-20T06:34:22;704.83;;;650.35;;
51949;SDS011;37974;53.218;6.640;2023-12-20T06:36:48;761.42;;;699.67;;
51949;SDS011;37974;53.218;6.640;2023-12-20T06:39:14;779.67;;;715.92;;
51949;SDS011;37974;53.218;6.640;2023-12-20T06:41:39;790.97;;;726.17;;
51949;SDS011;37974;53.218;6.640;2023-12-20T06:44:05;883.08;;;802.45;;
51949;SDS011;37974;53.218;6.640;2023-12-20T06:46:31;788.55;;;724.17;;
51949;SDS011;37974;53.218;6.640;2023-12-20T06:48:57;746.25;;;687.67;;
51949;SDS011;37974;53.218;6.640;2023-12-20T06:51:22;872.15;;;795.50;;
51949;SDS011;37974;53.218;6.640;2023-12-20T06:53:50;796.65;;;730.28;;
51949;SDS011;37974;53.218;6.640;2023-12-20T06:56:17;828.72;;;758.40;;
51949;SDS011;37974;53.218;6.640;2023-12-20T06:58:43;719.13;;;662.55;;
51949;SDS011;37974;53.218;6.640;2023-12-20T07:01:12;719.38;;;663.03;;
51949;SDS011;37974;53.218;6.640;2023-12-20T07:03:39;688.75;;;636.30;;
51949;SDS011;37974;53.218;6.640;2023-12-20T07:06:05;791.90;;;726.63;;
51949;SDS011;37974;53.218;6.640;2023-12-20T07:08:31;808.08;;;741.45;;
51949;SDS011;37974;53.218;6.640;2023-12-20T07:10:57;614.28;;;568.28;;
51949;SDS011;37974;53.218;6.640;2023-12-20T07:13:23;669.08;;;617.72;;
51949;SDS011;37974;53.218;6.640;2023-12-20T07:15:49;688.90;;;634.55;;
51949;SDS011;37974;53.218;6.640;2023-12-20T07:18:14;737.08;;;678.67;;
51949;SDS011;37974;53.218;6.640;2023-12-20T07:20:40;663.97;;;612.67;;
51949;SDS011;37974;53.218;6.640;2023-12-20T07:23:06;698.03;;;643.22;;
51949;SDS011;37974;53.218;6.640;2023-12-20T07:25:31;650.65;;;600.90;;
51949;SDS011;37974;53.218;6.640;2023-12-20T07:27:57;609.90;;;564.03;;
51949;SDS011;37974;53.218;6.640;2023-12-20T07:30:23;622.45;;;575.85;;
51949;SDS011;37974;53.218;6.640;2023-12-20T07:32:49;709.30;;;652.35;;
51949;SDS011;37974;53.218;6.640;2023-12-20T07:35:15;596.42;;;551.05;;
51949;SDS011;37974;53.218;6.640;2023-12-20T07:37:41;597.25;;;552.13;;
51949;SDS011;37974;53.218;6.640;2023-12-20T07:40:07;632.38;;;583.70;;
51949;SDS011;37974;53.218;6.640;2023-12-20T07:42:33;564.60;;;522.38;;
51949;SDS011;37974;53.218;6.640;2023-12-20T07:44:59;677.72;;;624.55;;
51949;SDS011;37974;53.218;6.640;2023-12-20T07:47:24;623.30;;;574.50;;
51949;SDS011;37974;53.218;6.640;2023-12-20T07:49:50;593.65;;;547.80;;
51949;SDS011;37974;53.218;6.640;2023-12-20T07:52:17;604.08;;;557.97;;
51949;SDS011;37974;53.218;6.640;2023-12-20T07:54:44;541.53;;;501.42;;
51949;SDS011;37974;53.218;6.640;2023-12-20T07:57:10;587.38;;;543.88;;
51949;SDS011;37974;53.218;6.640;2023-12-20T07:59:36;599.40;;;554.13;;
51949;SDS011;37974;53.218;6.640;2023-12-20T08:02:02;610.38;;;563.63;;
51949;SDS011;37974;53.218;6.640;2023-12-20T08:04:27;511.70;;;474.92;;
51949;SDS011;37974;53.218;6.640;2023-12-20T08:06:53;570.83;;;527.97;;
51949;SDS011;37974;53.218;6.640;2023-12-20T08:09:19;538.03;;;499.10;;
51949;SDS011;37974;53.218;6.640;2023-12-20T08:11:46;597.25;;;552.33;;
51949;SDS011;37974;53.218;6.640;2023-12-20T08:14:12;643.13;;;592.10;;
51949;SDS011;37974;53.218;6.640;2023-12-20T08:16:38;584.35;;;540.17;;
51949;SDS011;37974;53.218;6.640;2023-12-20T08:19:04;644.60;;;594.50;;
51949;SDS011;37974;53.218;6.640;2023-12-20T08:21:30;545.63;;;506.40;;
51949;SDS011;37974;53.218;6.640;2023-12-20T08:23:55;648.00;;;595.92;;
51949;SDS011;37974;53.218;6.640;2023-12-20T08:26:21;579.13;;;535.33;;
51949;SDS011;37974;53.218;6.640;2023-12-20T08:28:48;591.17;;;546.55;;
51949;SDS011;37974;53.218;6.640;2023-12-20T08:31:14;492.40;;;457.80;;
51949;SDS011;37974;53.218;6.640;2023-12-20T08:33:43;542.45;;;501.38;;
51949;SDS011;37974;53.218;6.640;2023-12-20T08:36:10;538.90;;;499.10;;
51949;SDS011;37974;53.218;6.640;2023-12-20T08:38:36;504.13;;;467.63;;
51949;SDS011;37974;53.218;6.640;2023-12-20T08:41:02;746.38;;;659.67;;
51949;SDS011;37974;53.218;6.640;2023-12-20T08:43:30;209.38;;;196.52;;
51949;SDS011;37974;53.218;6.640;2023-12-20T08:45:56;338.23;;;314.73;;
51949;SDS011;37974;53.218;6.640;2023-12-20T08:48:22;388.35;;;362.40;;
51949;SDS011;37974;53.218;6.640;2023-12-20T08:50:48;491.25;;;455.20;;
51949;SDS011;37974;53.218;6.640;2023-12-20T08:53:15;613.33;;;564.10;;
51949;SDS011;37974;53.218;6.640;2023-12-20T08:55:42;539.42;;;502.13;;
51949;SDS011;37974;53.218;6.640;2023-12-20T08:58:07;611.58;;;567.60;;
51949;SDS011;37974;53.218;6.640;2023-12-20T09:00:33;713.88;;;660.38;;
51949;SDS011;37974;53.218;6.640;2023-12-20T09:03:00;677.90;;;628.28;;
51949;SDS011;37974;53.218;6.640;2023-12-20T09:05:26;740.10;;;684.00;;
51949;SDS011;37974;53.218;6.640;2023-12-20T09:07:52;709.67;;;655.55;;
51949;SDS011;37974;53.218;6.640;2023-12-20T09:10:18;720.35;;;666.17;;
51949;SDS011;37974;53.218;6.640;2023-12-20T09:12:49;727.50;;;672.30;;
51949;SDS011;37974;53.218;6.640;2023-12-20T09:15:15;754.28;;;696.35;;
51949;SDS011;37974;53.218;6.640;2023-12-20T09:17:41;719.78;;;665.78;;
51949;SDS011;37974;53.218;6.640;2023-12-20T09:20:08;760.28;;;700.92;;
51949;SDS011;37974;53.218;6.640;2023-12-20T09:22:35;762.97;;;704.13;;
51949;SDS011;37974;53.218;6.640;2023-12-20T09:25:00;755.35;;;697.33;;
51949;SDS011;37974;53.218;6.640;2023-12-20T09:27:27;767.85;;;708.08;;
51949;SDS011;37974;53.218;6.640;2023-12-20T09:29:53;744.03;;;686.65;;
51949;SDS011;37974;53.218;6.640;2023-12-20T09:32:19;699.13;;;647.20;;
51949;SDS011;37974;53.218;6.640;2023-12-20T09:34:45;756.15;;;696.42;;
51949;SDS011;37974;53.218;6.640;2023-12-20T09:37:13;712.17;;;658.67;;
51949;SDS011;37974;53.218;6.640;2023-12-20T09:39:39;711.83;;;658.65;;
51949;SDS011;37974;53.218;6.640;2023-12-20T09:42:04;697.85;;;645.00;;
51949;SDS011;37974;53.218;6.640;2023-12-20T09:44:31;673.45;;;623.55;;
51949;SDS011;37974;53.218;6.640;2023-12-20T09:47:07;557.63;;;518.03;;
51949;SDS011;37974;53.218;6.640;2023-12-20T09:49:33;647.83;;;598.28;;
51949;SDS011;37974;53.218;6.640;2023-12-20T09:52:00;550.25;;;511.08;;
51949;SDS011;37974;53.218;6.640;2023-12-20T09:54:26;568.38;;;527.65;;
51949;SDS011;37974;53.218;6.640;2023-12-20T09:56:53;533.40;;;495.20;;
51949;SDS011;37974;53.218;6.640;2023-12-20T09:59:19;475.90;;;443.77;;
51949;SDS011;37974;53.218;6.640;2023-12-20T10:01:45;519.35;;;481.38;;
51949;SDS011;37974;53.218;6.640;2023-12-20T10:04:11;388.85;;;364.00;;
51949;SDS011;37974;53.218;6.640;2023-12-20T10:06:39;475.13;;;442.42;;
51949;SDS011;37974;53.218;6.640;2023-12-20T10:09:06;478.42;;;444.38;;
51949;SDS011;37974;53.218;6.640;2023-12-20T10:11:34;508.13;;;473.70;;
51949;SDS011;37974;53.218;6.640;2023-12-20T10:14:02;428.50;;;400.25;;
51949;SDS011;37974;53.218;6.640;2023-12-20T10:16:29;535.55;;;497.38;;
51949;SDS011;37974;53.218;6.640;2023-12-20T10:18:55;527.53;;;490.88;;
51949;SDS011;37974;53.218;6.640;2023-12-20T10:21:22;639.38;;;586.47;;
51949;SDS011;37974;53.218;6.640;2023-12-20T10:23:49;449.30;;;419.17;;
51949;SDS011;37974;53.218;6.640;2023-12-20T10:26:19;454.45;;;423.83;;
51949;SDS011;37974;53.218;6.640;2023-12-20T10:28:46;524.55;;;487.42;;
51949;SDS011;37974;53.218;6.640;2023-12-20T10:31:31;435.05;;;405.90;;
51949;SDS011;37974;53.218;6.640;2023-12-20T10:33:59;399.75;;;373.90;;
51949;SDS011;37974;53.218;6.640;2023-12-20T10:36:26;435.45;;;406.13;;
51949;SDS011;37974;53.218;6.640;2023-12-20T10:38:53;470.08;;;436.00;;
51949;SDS011;37974;53.218;6.640;2023-12-20T10:41:25;424.90;;;396.73;;
51949;SDS011;37974;53.218;6.640;2023-12-20T10:44:00;416.25;;;388.63;;
51949;SDS011;37974;53.218;6.640;2023-12-20T10:46:28;407.08;;;380.73;;
51949;SDS011;37974;53.218;6.640;2023-12-20T10:48:55;337.38;;;315.92;;
51949;SDS011;37974;53.218;6.640;2023-12-20T10:51:22;332.80;;;312.13;;
51949;SDS011;37974;53.218;6.640;2023-12-20T10:53:49;382.88;;;358.23;;
51949;SDS011;37974;53.218;6.640;2023-12-20T10:56:18;344.17;;;321.58;;
51949;SDS011;37974;53.218;6.640;2023-12-20T10:58:46;413.13;;;384.85;;
51949;SDS011;37974;53.218;6.640;2023-12-20T11:01:13;359.33;;;336.42;;
51949;SDS011;37974;53.218;6.640;2023-12-20T11:03:43;394.42;;;368.67;;
51949;SDS011;37974;53.218;6.640;2023-12-20T11:08:47;355.45;;;332.60;;
51949;SDS011;37974;53.218;6.640;2023-12-20T11:11:26;386.25;;;360.60;;
51949;SDS011;37974;53.218;6.640;2023-12-20T11:16:24;332.35;;;310.92;;
51949;SDS011;37974;53.218;6.640;2023-12-20T11:18:50;336.20;;;313.98;;
51949;SDS011;37974;53.218;6.640;2023-12-20T11:21:16;352.95;;;330.33;;
51949;SDS011;37974;53.218;6.640;2023-12-20T11:23:42;362.35;;;338.58;;
51949;SDS011;37974;53.218;6.640;2023-12-20T11:26:09;366.90;;;343.05;;
51949;SDS011;37974;53.218;6.640;2023-12-20T11:28:35;376.33;;;352.00;;
51949;SDS011;37974;53.218;6.640;2023-12-20T11:31:01;325.77;;;304.20;;
51949;SDS011;37974;53.218;6.640;2023-12-20T11:33:37;345.40;;;322.35;;
51949;SDS011;37974;53.218;6.640;2023-12-20T11:36:07;351.35;;;327.65;;
51949;SDS011;37974;53.218;6.640;2023-12-20T11:38:38;339.73;;;317.73;;
51949;SDS011;37974;53.218;6.640;2023-12-20T11:41:14;355.20;;;331.52;;
51949;SDS011;37974;53.218;6.640;2023-12-20T11:43:41;340.77;;;317.92;;
51949;SDS011;37974;53.218;6.640;2023-12-20T11:46:07;383.40;;;358.40;;
51949;SDS011;37974;53.218;6.640;2023-12-20T11:48:36;348.52;;;325.85;;
51949;SDS011;37974;53.218;6.640;2023-12-20T11:51:08;389.00;;;362.58;;
51949;SDS011;37974;53.218;6.640;2023-12-20T11:53:35;342.48;;;320.08;;
51949;SDS011;37974;53.218;6.640;2023-12-20T11:56:02;352.40;;;328.17;;
51949;SDS011;37974;53.218;6.640;2023-12-20T11:58:29;338.33;;;315.83;;
51949;SDS011;37974;53.218;6.640;2023-12-20T12:00:55;327.65;;;305.48;;
51949;SDS011;37974;53.218;6.640;2023-12-20T12:03:21;357.98;;;333.63;;
51949;SDS011;37974;53.218;6.640;2023-12-20T12:05:49;335.63;;;314.48;;
51949;SDS011;37974;53.218;6.640;2023-12-20T12:08:15;343.63;;;321.45;;
51949;SDS011;37974;53.218;6.640;2023-12-20T12:10:42;334.05;;;312.25;;
51949;SDS011;37974;53.218;6.640;2023-12-20T12:13:09;381.15;;;356.00;;
51949;SDS011;37974;53.218;6.640;2023-12-20T12:15:35;339.83;;;317.27;;
51949;SDS011;37974;53.218;6.640;2023-12-20T12:18:01;352.98;;;330.58;;
51949;SDS011;37974;53.218;6.640;2023-12-20T12:20:27;343.88;;;321.60;;
51949;SDS011;37974;53.218;6.640;2023-12-20T12:22:57;364.17;;;340.25;;
51949;SDS011;37974;53.218;6.640;2023-12-20T12:25:25;356.60;;;333.17;;
51949;SDS011;37974;53.218;6.640;2023-12-20T12:27:51;339.80;;;318.08;;
51949;SDS011;37974;53.218;6.640;2023-12-20T12:30:17;379.10;;;353.80;;
51949;SDS011;37974;53.218;6.640;2023-12-20T12:32:44;320.85;;;299.52;;
51949;SDS011;37974;53.218;6.640;2023-12-20T12:35:10;355.27;;;331.42;;
51949;SDS011;37974;53.218;6.640;2023-12-20T12:37:37;363.55;;;339.80;;
51949;SDS011;37974;53.218;6.640;2023-12-20T12:40:10;390.25;;;363.90;;
51949;SDS011;37974;53.218;6.640;2023-12-20T12:42:37;353.73;;;330.17;;
51949;SDS011;37974;53.218;6.640;2023-12-20T12:45:06;331.15;;;309.80;;
51949;SDS011;37974;53.218;6.640;2023-12-20T12:47:32;386.35;;;361.52;;
51949;SDS011;37974;53.218;6.640;2023-12-20T12:49:59;333.13;;;311.08;;
51949;SDS011;37974;53.218;6.640;2023-12-20T12:52:25;406.75;;;378.55;;
51949;SDS011;37974;53.218;6.640;2023-12-20T12:54:52;343.27;;;320.67;;
51949;SDS011;37974;53.218;6.640;2023-12-20T12:57:18;285.90;;;267.17;;
51949;SDS011;37974;53.218;6.640;2023-12-20T12:59:44;302.30;;;283.23;;
51949;SDS011;37974;53.218;6.640;2023-12-20T13:02:13;257.58;;;240.68;;
51949;SDS011;37974;53.218;6.640;2023-12-20T13:04:39;257.92;;;241.70;;
51949;SDS011;37974;53.218;6.640;2023-12-20T13:07:06;236.60;;;221.30;;
51949;SDS011;37974;53.218;6.640;2023-12-20T13:09:32;243.73;;;228.60;;
51949;SDS011;37974;53.218;6.640;2023-12-20T13:11:58;267.58;;;250.68;;
51949;SDS011;37974;53.218;6.640;2023-12-20T13:14:24;268.33;;;251.10;;
51949;SDS011;37974;53.218;6.640;2023-12-20T13:16:50;340.70;;;317.98;;
51949;SDS011;37974;53.218;6.640;2023-12-20T13:19:16;420.15;;;390.23;;
51949;SDS011;37974;53.218;6.640;2023-12-20T13:21:42;411.70;;;383.13;;
51949;SDS011;37974;53.218;6.640;2023-12-20T13:24:07;486.88;;;452.52;;
51949;SDS011;37974;53.218;6.640;2023-12-20T13:26:33;501.75;;;466.33;;
51949;SDS011;37974;53.218;6.640;2023-12-20T13:28:59;499.40;;;465.08;;
51949;SDS011;37974;53.218;6.640;2023-12-20T13:31:24;498.75;;;464.55;;
51949;SDS011;37974;53.218;6.640;2023-12-20T13:33:50;591.90;;;547.42;;
51949;SDS011;37974;53.218;6.640;2023-12-20T13:36:17;628.25;;;580.05;;
51949;SDS011;37974;53.218;6.640;2023-12-20T13:38:43;625.22;;;579.35;;
51949;SDS011;37974;53.218;6.640;2023-12-20T13:41:09;627.00;;;579.78;;
51949;SDS011;37974;53.218;6.640;2023-12-20T13:43:35;725.72;;;669.85;;
51949;SDS011;37974;53.218;6.640;2023-12-20T13:46:01;643.58;;;595.58;;
51949;SDS011;37974;53.218;6.640;2023-12-20T13:48:26;639.15;;;591.20;;
51949;SDS011;37974;53.218;6.640;2023-12-20T13:50:52;648.85;;;599.55;;
51949;SDS011;37974;53.218;6.640;2023-12-20T13:53:18;609.90;;;564.58;;
51949;SDS011;37974;53.218;6.640;2023-12-20T13:55:44;655.17;;;606.13;;